<?xml version="1.0" encoding="UTF-8"?>
<gpx version="1.1" creator="GPSBabel - http://www.gpsbabel.org" xmlns="http://www.topografix.com/GPX/1/1" xmlns:xsi="http://www.w3.org/2001/XMLSchema-instance">
  <metadata>
    <time>2017-03-10T10:09:56.404Z</time>
    <bounds minlat="40.114402000" minlon="-5.853189000" maxlat="40.146569000" maxlon="-5.803917000"/>
  </metadata>
  <wpt lat="40.120607000" lon="-5.831327000">
    <ele>0.000000</ele>
    <time>2014-09-14T20:05:59Z</time>
    <name>ERMITA S CRISTOBAL</name>
    <cmt>ERMITA S CRISTOBAL</cmt>
    <desc>ERMITA S CRISTOBAL</desc>
  </wpt>
  <wpt lat="40.136039000" lon="-5.807023000">
    <ele>0.000000</ele>
    <time>2014-09-14T20:08:13Z</time>
    <name>FTE OLIVA MARTIN</name>
    <cmt>FTE OLIVA MARTIN</cmt>
    <desc>FTE OLIVA MARTIN</desc>
  </wpt>
  <wpt lat="40.127665000" lon="-5.821370000">
    <ele>0.000000</ele>
    <time>2014-09-14T20:12:45Z</time>
    <name>POZAS</name>
    <cmt>3 grande, mediana y pequeña</cmt>
    <desc>3 grande, mediana y pequeña</desc>
  </wpt>
  <wpt lat="40.136273000" lon="-5.831804000">
    <ele>0.000000</ele>
    <time>2014-09-14T20:18:52Z</time>
    <name>MAJA</name>
    <cmt>MAJA</cmt>
    <desc>MAJA</desc>
  </wpt>
  <wpt lat="40.135931000" lon="-5.836578000">
    <ele>0.000000</ele>
    <time>2014-09-14T20:19:40Z</time>
    <name>FTE LOS LLANOS</name>
    <cmt>FTE LOS LLANOS</cmt>
    <desc>FTE LOS LLANOS</desc>
  </wpt>
  <wpt lat="40.130672000" lon="-5.845792000">
    <ele>0.000000</ele>
    <time>2014-09-14T20:21:16Z</time>
    <name>PTE LA VINA</name>
    <cmt>CALDERÓN</cmt>
    <desc>CALDERÓN</desc>
  </wpt>
  <wpt lat="40.130854000" lon="-5.845984000">
    <ele>0.000000</ele>
    <time>2014-09-14T20:21:54Z</time>
    <name>FABRICA DE LA LUZ</name>
    <cmt>FABRICA DE LA LUZ</cmt>
    <desc>FABRICA DE LA LUZ</desc>
  </wpt>
  <wpt lat="40.125499000" lon="-5.851111000">
    <ele>0.000000</ele>
    <time>2014-09-14T20:22:47Z</time>
    <name>FTE MATAFRAILES</name>
    <cmt>FTE MATAFRAILES</cmt>
    <desc>FTE MATAFRAILES</desc>
  </wpt>
  <wpt lat="40.123836000" lon="-5.852620000">
    <ele>0.000000</ele>
    <time>2014-09-14T20:23:55Z</time>
    <name>MIRADOR</name>
    <cmt>MIRADOR</cmt>
    <desc>MIRADOR</desc>
  </wpt>
  <wpt lat="40.119759000" lon="-5.853189000">
    <ele>0.000000</ele>
    <time>2014-09-14T20:24:25Z</time>
    <name>FTE MIRADOR</name>
    <cmt>FTE MIRADOR</cmt>
    <desc>FTE MIRADOR</desc>
  </wpt>
  <wpt lat="40.118890000" lon="-5.852648000">
    <ele>0.000000</ele>
    <time>2014-09-14T20:24:36Z</time>
    <name>FTE LA PIPA</name>
    <cmt>FTE LA PIPA</cmt>
    <desc>FTE LA PIPA</desc>
  </wpt>
  <wpt lat="40.128540000" lon="-5.817430000">
    <ele>1243.000000</ele>
    <time>2002-04-14T15:24:35Z</time>
    <name>JUNTO PARED</name>
    <cmt>JUNTO PARED</cmt>
    <desc>JUNTO PARED</desc>
  </wpt>
  <wpt lat="40.117640000" lon="-5.848270000">
    <ele>1189.300000</ele>
    <time>2002-04-14T15:24:39Z</time>
    <name>PIORNAL</name>
    <cmt>PIORNAL</cmt>
    <desc>PIORNAL</desc>
  </wpt>
  <wpt lat="40.130809000" lon="-5.844232000">
    <ele>917.400000</ele>
    <time>2013-04-21T21:53:19Z</time>
    <name>El Cadeon</name>
    <cmt>El Cadeon</cmt>
    <desc>El Cadeon</desc>
  </wpt>
  <wpt lat="40.118896000" lon="-5.852635000">
    <ele>1161.900000</ele>
    <time>2013-04-21T21:53:29Z</time>
    <name>Cementerio</name>
    <cmt>Cementerio</cmt>
    <desc>Cementerio</desc>
  </wpt>
  <wpt lat="40.139090000" lon="-5.829973000">
    <ele>1184.100000</ele>
    <time>2013-04-21T21:53:11Z</time>
    <name>Fuente de los Llanos</name>
    <cmt>Fuente de los Llanos</cmt>
    <desc>Fuente de los Llanos</desc>
  </wpt>
  <wpt lat="40.130868000" lon="-5.845875000">
    <ele>897.900000</ele>
    <time>2013-04-21T21:53:11Z</time>
    <name>Cascada del calderon</name>
    <cmt>Cascada del calderon</cmt>
    <desc>Cascada del calderon</desc>
  </wpt>
  <trk>
    <name>PR-CC 12 'Los Llanos - Calderón' (Piornal)</name>
    <desc>Más información en http://fexme.com/buscar-senderos/</desc>
    <cmt>Más información en http://fexme.com/buscar-senderos/</cmt>
    <trkseg>
      <trkpt lat="40.117675000" lon="-5.848596000">
        <ele>1178.700000</ele>
        <time>2014-10-21T09:56:51Z</time>
      </trkpt>
      <trkpt lat="40.116918000" lon="-5.846212000">
        <ele>1185.700000</ele>
        <time>2014-10-21T09:57:00Z</time>
      </trkpt>
      <trkpt lat="40.115844000" lon="-5.843920000">
        <ele>1193.600000</ele>
        <time>2014-10-21T09:57:07Z</time>
      </trkpt>
      <trkpt lat="40.115499000" lon="-5.843683000">
        <ele>1196.300000</ele>
        <time>2014-10-21T09:57:09Z</time>
      </trkpt>
      <trkpt lat="40.115059000" lon="-5.843982000">
        <ele>1194.800000</ele>
        <time>2014-10-21T09:57:10Z</time>
      </trkpt>
      <trkpt lat="40.114693000" lon="-5.843831000">
        <ele>1195.400000</ele>
        <time>2014-10-21T09:57:13Z</time>
      </trkpt>
      <trkpt lat="40.114404000" lon="-5.843303000">
        <ele>1199.400000</ele>
        <time>2014-10-21T09:57:14Z</time>
      </trkpt>
      <trkpt lat="40.114402000" lon="-5.842851000">
        <ele>1202.400000</ele>
        <time>2014-10-21T09:57:17Z</time>
      </trkpt>
      <trkpt lat="40.115281000" lon="-5.842442000">
        <ele>1206.400000</ele>
        <time>2014-10-21T09:57:22Z</time>
      </trkpt>
      <trkpt lat="40.115352000" lon="-5.841867000">
        <ele>1209.400000</ele>
        <time>2014-10-21T09:57:25Z</time>
      </trkpt>
      <trkpt lat="40.115918000" lon="-5.840266000">
        <ele>1217.400000</ele>
        <time>2014-10-21T09:57:29Z</time>
      </trkpt>
      <trkpt lat="40.116082000" lon="-5.838706000">
        <ele>1226.200000</ele>
        <time>2014-10-21T09:57:34Z</time>
      </trkpt>
      <trkpt lat="40.116802000" lon="-5.837446000">
        <ele>1235.700000</ele>
        <time>2014-10-21T09:57:38Z</time>
      </trkpt>
      <trkpt lat="40.117251000" lon="-5.837165000">
        <ele>1237.500000</ele>
        <time>2014-10-21T09:57:41Z</time>
      </trkpt>
      <trkpt lat="40.118238000" lon="-5.835188000">
        <ele>1245.400000</ele>
        <time>2014-10-21T09:57:49Z</time>
      </trkpt>
      <trkpt lat="40.119804000" lon="-5.834426000">
        <ele>1259.100000</ele>
        <time>2014-10-21T09:57:57Z</time>
      </trkpt>
      <trkpt lat="40.120605000" lon="-5.833732000">
        <ele>1262.200000</ele>
        <time>2014-10-21T09:58:04Z</time>
      </trkpt>
      <trkpt lat="40.120639000" lon="-5.833337000">
        <ele>1261.500000</ele>
        <time>2014-10-21T09:58:05Z</time>
      </trkpt>
      <trkpt lat="40.121211000" lon="-5.832235000">
        <ele>1259.700000</ele>
        <time>2014-10-21T09:58:09Z</time>
      </trkpt>
      <trkpt lat="40.121266000" lon="-5.831633000">
        <ele>1258.100000</ele>
        <time>2014-10-21T09:58:12Z</time>
      </trkpt>
      <trkpt lat="40.121576000" lon="-5.831487000">
        <ele>1258.600000</ele>
        <time>2014-10-21T09:58:15Z</time>
      </trkpt>
      <trkpt lat="40.121499000" lon="-5.830974000">
        <ele>1260.300000</ele>
        <time>2014-10-21T09:58:17Z</time>
      </trkpt>
      <trkpt lat="40.122693000" lon="-5.830548000">
        <ele>1255.900000</ele>
        <time>2014-10-21T09:58:23Z</time>
      </trkpt>
      <trkpt lat="40.123104000" lon="-5.829949000">
        <ele>1253.800000</ele>
        <time>2014-10-21T09:58:26Z</time>
      </trkpt>
      <trkpt lat="40.123068000" lon="-5.829220000">
        <ele>1253.000000</ele>
        <time>2014-10-21T09:58:28Z</time>
      </trkpt>
      <trkpt lat="40.124133000" lon="-5.829505000">
        <ele>1242.700000</ele>
        <time>2014-10-21T09:58:32Z</time>
      </trkpt>
      <trkpt lat="40.124438000" lon="-5.829382000">
        <ele>1239.000000</ele>
        <time>2014-10-21T09:58:35Z</time>
      </trkpt>
      <trkpt lat="40.124255000" lon="-5.828201000">
        <ele>1237.200000</ele>
        <time>2014-10-21T09:58:39Z</time>
      </trkpt>
      <trkpt lat="40.124338000" lon="-5.827759000">
        <ele>1236.500000</ele>
        <time>2014-10-21T09:58:42Z</time>
      </trkpt>
      <trkpt lat="40.124714000" lon="-5.827112000">
        <ele>1234.300000</ele>
        <time>2014-10-21T09:58:43Z</time>
      </trkpt>
      <trkpt lat="40.125067000" lon="-5.826880000">
        <ele>1232.100000</ele>
        <time>2014-10-21T09:58:46Z</time>
      </trkpt>
      <trkpt lat="40.125793000" lon="-5.825543000">
        <ele>1225.000000</ele>
        <time>2014-10-21T09:58:50Z</time>
      </trkpt>
      <trkpt lat="40.126568000" lon="-5.824765000">
        <ele>1215.100000</ele>
        <time>2014-10-21T09:58:54Z</time>
      </trkpt>
      <trkpt lat="40.126767000" lon="-5.823624000">
        <ele>1218.000000</ele>
        <time>2014-10-21T09:58:58Z</time>
      </trkpt>
      <trkpt lat="40.127170000" lon="-5.823370000">
        <ele>1215.600000</ele>
        <time>2014-10-21T09:59:01Z</time>
      </trkpt>
      <trkpt lat="40.127513000" lon="-5.821665000">
        <ele>1217.900000</ele>
        <time>2014-10-21T09:59:07Z</time>
      </trkpt>
      <trkpt lat="40.128091000" lon="-5.820334000">
        <ele>1223.600000</ele>
        <time>2014-10-21T09:59:14Z</time>
      </trkpt>
      <trkpt lat="40.128274000" lon="-5.820201000">
        <ele>1222.900000</ele>
        <time>2014-10-21T09:59:14Z</time>
      </trkpt>
      <trkpt lat="40.128299000" lon="-5.820096000">
        <ele>1223.000000</ele>
        <time>2014-10-21T09:59:15Z</time>
      </trkpt>
      <trkpt lat="40.127358000" lon="-5.819740000">
        <ele>1232.300000</ele>
        <time>2014-10-21T09:59:21Z</time>
      </trkpt>
      <trkpt lat="40.127420000" lon="-5.818845000">
        <ele>1238.400000</ele>
        <time>2014-10-21T09:59:25Z</time>
      </trkpt>
      <trkpt lat="40.128131000" lon="-5.818294000">
        <ele>1235.900000</ele>
        <time>2014-10-21T09:59:29Z</time>
      </trkpt>
      <trkpt lat="40.128487000" lon="-5.817563000">
        <ele>1236.500000</ele>
        <time>2014-10-21T09:59:33Z</time>
      </trkpt>
      <trkpt lat="40.129065000" lon="-5.816965000">
        <ele>1236.700000</ele>
        <time>2014-10-21T09:59:36Z</time>
      </trkpt>
      <trkpt lat="40.129141000" lon="-5.816241000">
        <ele>1240.300000</ele>
        <time>2014-10-21T09:59:38Z</time>
      </trkpt>
      <trkpt lat="40.130612000" lon="-5.813338000">
        <ele>1246.600000</ele>
        <time>2014-10-21T09:59:52Z</time>
      </trkpt>
      <trkpt lat="40.130799000" lon="-5.813047000">
        <ele>1248.000000</ele>
        <time>2014-10-21T09:59:55Z</time>
      </trkpt>
      <trkpt lat="40.133930000" lon="-5.811272000">
        <ele>1247.800000</ele>
        <time>2014-10-21T09:59:56Z</time>
      </trkpt>
      <trkpt lat="40.135186000" lon="-5.811940000">
        <ele>1250.100000</ele>
        <time>2014-10-21T09:59:56Z</time>
      </trkpt>
      <trkpt lat="40.137554000" lon="-5.811348000">
        <ele>1254.800000</ele>
        <time>2014-10-21T09:59:57Z</time>
      </trkpt>
      <trkpt lat="40.136842000" lon="-5.810515000">
        <ele>1263.200000</ele>
        <time>2014-10-21T10:00:03Z</time>
      </trkpt>
      <trkpt lat="40.136328000" lon="-5.810341000">
        <ele>1265.200000</ele>
        <time>2014-10-21T10:00:04Z</time>
      </trkpt>
      <trkpt lat="40.136177000" lon="-5.810059000">
        <ele>1267.400000</ele>
        <time>2014-10-21T10:00:05Z</time>
      </trkpt>
      <trkpt lat="40.136252000" lon="-5.809581000">
        <ele>1271.300000</ele>
        <time>2014-10-21T10:00:08Z</time>
      </trkpt>
      <trkpt lat="40.136917000" lon="-5.808711000">
        <ele>1278.700000</ele>
        <time>2014-10-21T10:00:12Z</time>
      </trkpt>
      <trkpt lat="40.138211000" lon="-5.808652000">
        <ele>1276.200000</ele>
        <time>2014-10-21T10:00:16Z</time>
      </trkpt>
      <trkpt lat="40.139799000" lon="-5.807644000">
        <ele>1270.400000</ele>
        <time>2014-10-21T10:00:23Z</time>
      </trkpt>
      <trkpt lat="40.140317000" lon="-5.807800000">
        <ele>1264.100000</ele>
        <time>2014-10-21T10:00:27Z</time>
      </trkpt>
      <trkpt lat="40.141049000" lon="-5.807695000">
        <ele>1258.300000</ele>
        <time>2014-10-21T10:00:30Z</time>
      </trkpt>
      <trkpt lat="40.141638000" lon="-5.807186000">
        <ele>1253.100000</ele>
        <time>2014-10-21T10:00:32Z</time>
      </trkpt>
      <trkpt lat="40.141858000" lon="-5.806672000">
        <ele>1250.300000</ele>
        <time>2014-10-21T10:00:35Z</time>
      </trkpt>
      <trkpt lat="40.142372000" lon="-5.806259000">
        <ele>1243.500000</ele>
        <time>2014-10-21T10:00:39Z</time>
      </trkpt>
      <trkpt lat="40.142982000" lon="-5.805263000">
        <ele>1237.000000</ele>
        <time>2014-10-21T10:00:43Z</time>
      </trkpt>
      <trkpt lat="40.143204000" lon="-5.803917000">
        <ele>1244.700000</ele>
        <time>2014-10-21T10:00:50Z</time>
      </trkpt>
      <trkpt lat="40.144332000" lon="-5.805113000">
        <ele>1228.500000</ele>
        <time>2014-10-21T10:00:58Z</time>
      </trkpt>
      <trkpt lat="40.145498000" lon="-5.805150000">
        <ele>1228.900000</ele>
        <time>2014-10-21T10:01:03Z</time>
      </trkpt>
      <trkpt lat="40.145458000" lon="-5.806439000">
        <ele>1217.900000</ele>
        <time>2014-10-21T10:01:10Z</time>
      </trkpt>
      <trkpt lat="40.146451000" lon="-5.808769000">
        <ele>1220.600000</ele>
        <time>2014-10-21T10:01:17Z</time>
      </trkpt>
      <trkpt lat="40.146569000" lon="-5.809648000">
        <ele>1220.100000</ele>
        <time>2014-10-21T10:01:18Z</time>
      </trkpt>
      <trkpt lat="40.146400000" lon="-5.810651000">
        <ele>1219.900000</ele>
        <time>2014-10-21T10:01:21Z</time>
      </trkpt>
      <trkpt lat="40.145882000" lon="-5.811404000">
        <ele>1219.600000</ele>
        <time>2014-10-21T10:01:24Z</time>
      </trkpt>
      <trkpt lat="40.144088000" lon="-5.815908000">
        <ele>1223.400000</ele>
        <time>2014-10-21T10:01:35Z</time>
      </trkpt>
      <trkpt lat="40.143867000" lon="-5.818874000">
        <ele>1225.700000</ele>
        <time>2014-10-21T10:01:41Z</time>
      </trkpt>
      <trkpt lat="40.143579000" lon="-5.819819000">
        <ele>1227.200000</ele>
        <time>2014-10-21T10:01:44Z</time>
      </trkpt>
      <trkpt lat="40.143637000" lon="-5.821118000">
        <ele>1226.800000</ele>
        <time>2014-10-21T10:01:48Z</time>
      </trkpt>
      <trkpt lat="40.143387000" lon="-5.821935000">
        <ele>1226.900000</ele>
        <time>2014-10-21T10:01:52Z</time>
      </trkpt>
      <trkpt lat="40.143449000" lon="-5.823857000">
        <ele>1224.400000</ele>
        <time>2014-10-21T10:01:57Z</time>
      </trkpt>
      <trkpt lat="40.143335000" lon="-5.824075000">
        <ele>1225.000000</ele>
        <time>2014-10-21T10:01:59Z</time>
      </trkpt>
      <trkpt lat="40.141944000" lon="-5.824974000">
        <ele>1218.000000</ele>
        <time>2014-10-21T10:02:04Z</time>
      </trkpt>
      <trkpt lat="40.140594000" lon="-5.826203000">
        <ele>1204.100000</ele>
        <time>2014-10-21T10:02:11Z</time>
      </trkpt>
      <trkpt lat="40.139523000" lon="-5.826734000">
        <ele>1195.200000</ele>
        <time>2014-10-21T10:02:15Z</time>
      </trkpt>
      <trkpt lat="40.138725000" lon="-5.827517000">
        <ele>1191.300000</ele>
        <time>2014-10-21T10:02:18Z</time>
      </trkpt>
      <trkpt lat="40.138074000" lon="-5.828898000">
        <ele>1185.100000</ele>
        <time>2014-10-21T10:02:22Z</time>
      </trkpt>
      <trkpt lat="40.137991000" lon="-5.829352000">
        <ele>1183.000000</ele>
        <time>2014-10-21T10:02:23Z</time>
      </trkpt>
      <trkpt lat="40.138127000" lon="-5.829675000">
        <ele>1181.700000</ele>
        <time>2014-10-21T10:02:24Z</time>
      </trkpt>
      <trkpt lat="40.138994000" lon="-5.829781000">
        <ele>1184.200000</ele>
        <time>2014-10-21T10:02:27Z</time>
      </trkpt>
      <trkpt lat="40.139241000" lon="-5.829991000">
        <ele>1183.400000</ele>
        <time>2014-10-21T10:02:30Z</time>
      </trkpt>
      <trkpt lat="40.138202000" lon="-5.831397000">
        <ele>1167.500000</ele>
        <time>2014-10-21T10:02:34Z</time>
      </trkpt>
      <trkpt lat="40.137566000" lon="-5.831799000">
        <ele>1163.500000</ele>
        <time>2014-10-21T10:02:35Z</time>
      </trkpt>
      <trkpt lat="40.137259000" lon="-5.831822000">
        <ele>1161.300000</ele>
        <time>2014-10-21T10:02:37Z</time>
      </trkpt>
      <trkpt lat="40.136938000" lon="-5.831533000">
        <ele>1159.400000</ele>
        <time>2014-10-21T10:02:38Z</time>
      </trkpt>
      <trkpt lat="40.136748000" lon="-5.831554000">
        <ele>1157.700000</ele>
        <time>2014-10-21T10:02:39Z</time>
      </trkpt>
      <trkpt lat="40.136050000" lon="-5.832082000">
        <ele>1149.500000</ele>
        <time>2014-10-21T10:02:43Z</time>
      </trkpt>
      <trkpt lat="40.135452000" lon="-5.832069000">
        <ele>1139.300000</ele>
        <time>2014-10-21T10:02:46Z</time>
      </trkpt>
      <trkpt lat="40.135133000" lon="-5.832209000">
        <ele>1134.700000</ele>
        <time>2014-10-21T10:02:47Z</time>
      </trkpt>
      <trkpt lat="40.134588000" lon="-5.832761000">
        <ele>1121.000000</ele>
        <time>2014-10-21T10:02:50Z</time>
      </trkpt>
      <trkpt lat="40.134525000" lon="-5.833856000">
        <ele>1114.400000</ele>
        <time>2014-10-21T10:02:54Z</time>
      </trkpt>
      <trkpt lat="40.134891000" lon="-5.835273000">
        <ele>1110.700000</ele>
        <time>2014-10-21T10:02:58Z</time>
      </trkpt>
      <trkpt lat="40.135410000" lon="-5.835442000">
        <ele>1119.800000</ele>
        <time>2014-10-21T10:03:00Z</time>
      </trkpt>
      <trkpt lat="40.135633000" lon="-5.836237000">
        <ele>1110.200000</ele>
        <time>2014-10-21T10:03:01Z</time>
      </trkpt>
      <trkpt lat="40.135919000" lon="-5.836507000">
        <ele>1111.800000</ele>
        <time>2014-10-21T10:03:05Z</time>
      </trkpt>
      <trkpt lat="40.134952000" lon="-5.838310000">
        <ele>1089.000000</ele>
        <time>2014-10-21T10:03:12Z</time>
      </trkpt>
      <trkpt lat="40.134833000" lon="-5.840218000">
        <ele>1080.200000</ele>
        <time>2014-10-21T10:03:16Z</time>
      </trkpt>
      <trkpt lat="40.134955000" lon="-5.840205000">
        <ele>1079.500000</ele>
        <time>2014-10-21T10:03:17Z</time>
      </trkpt>
      <trkpt lat="40.135385000" lon="-5.839008000">
        <ele>1084.900000</ele>
        <time>2014-10-21T10:03:21Z</time>
      </trkpt>
      <trkpt lat="40.136992000" lon="-5.840149000">
        <ele>1050.600000</ele>
        <time>2014-10-21T10:03:29Z</time>
      </trkpt>
      <trkpt lat="40.137546000" lon="-5.840354000">
        <ele>1051.900000</ele>
        <time>2014-10-21T10:03:32Z</time>
      </trkpt>
      <trkpt lat="40.137643000" lon="-5.840611000">
        <ele>1045.600000</ele>
        <time>2014-10-21T10:03:35Z</time>
      </trkpt>
      <trkpt lat="40.136046000" lon="-5.840509000">
        <ele>1040.600000</ele>
        <time>2014-10-21T10:03:45Z</time>
      </trkpt>
      <trkpt lat="40.136227000" lon="-5.843973000">
        <ele>991.600000</ele>
        <time>2014-10-21T10:03:55Z</time>
      </trkpt>
      <trkpt lat="40.136081000" lon="-5.845539000">
        <ele>977.700000</ele>
        <time>2014-10-21T10:03:58Z</time>
      </trkpt>
      <trkpt lat="40.136210000" lon="-5.846513000">
        <ele>963.200000</ele>
        <time>2014-10-21T10:04:00Z</time>
      </trkpt>
      <trkpt lat="40.136184000" lon="-5.847574000">
        <ele>952.400000</ele>
        <time>2014-10-21T10:04:03Z</time>
      </trkpt>
      <trkpt lat="40.135888000" lon="-5.848037000">
        <ele>946.800000</ele>
        <time>2014-10-21T10:04:07Z</time>
      </trkpt>
      <trkpt lat="40.136415000" lon="-5.848405000">
        <ele>933.600000</ele>
        <time>2014-10-21T10:04:10Z</time>
      </trkpt>
      <trkpt lat="40.136991000" lon="-5.848253000">
        <ele>922.200000</ele>
        <time>2014-10-21T10:04:14Z</time>
      </trkpt>
      <trkpt lat="40.136795000" lon="-5.848914000">
        <ele>918.800000</ele>
        <time>2014-10-21T10:04:15Z</time>
      </trkpt>
      <trkpt lat="40.135583000" lon="-5.849820000">
        <ele>900.400000</ele>
        <time>2014-10-21T10:04:21Z</time>
      </trkpt>
      <trkpt lat="40.135021000" lon="-5.849972000">
        <ele>895.000000</ele>
        <time>2014-10-21T10:04:22Z</time>
      </trkpt>
      <trkpt lat="40.134020000" lon="-5.849854000">
        <ele>886.400000</ele>
        <time>2014-10-21T10:04:26Z</time>
      </trkpt>
      <trkpt lat="40.133509000" lon="-5.849545000">
        <ele>881.300000</ele>
        <time>2014-10-21T10:04:29Z</time>
      </trkpt>
      <trkpt lat="40.133001000" lon="-5.848608000">
        <ele>886.800000</ele>
        <time>2014-10-21T10:04:31Z</time>
      </trkpt>
      <trkpt lat="40.131371000" lon="-5.847109000">
        <ele>893.600000</ele>
        <time>2014-10-21T10:04:38Z</time>
      </trkpt>
      <trkpt lat="40.131185000" lon="-5.846444000">
        <ele>904.600000</ele>
        <time>2014-10-21T10:04:39Z</time>
      </trkpt>
      <trkpt lat="40.130643000" lon="-5.845673000">
        <ele>910.100000</ele>
        <time>2014-10-21T10:04:45Z</time>
      </trkpt>
      <trkpt lat="40.130349000" lon="-5.846022000">
        <ele>913.100000</ele>
        <time>2014-10-21T10:04:49Z</time>
      </trkpt>
      <trkpt lat="40.130366000" lon="-5.846688000">
        <ele>906.600000</ele>
        <time>2014-10-21T10:04:54Z</time>
      </trkpt>
      <trkpt lat="40.130040000" lon="-5.847402000">
        <ele>915.400000</ele>
        <time>2014-10-21T10:05:00Z</time>
      </trkpt>
      <trkpt lat="40.129842000" lon="-5.846306000">
        <ele>927.900000</ele>
        <time>2014-10-21T10:05:05Z</time>
      </trkpt>
      <trkpt lat="40.129573000" lon="-5.845696000">
        <ele>939.900000</ele>
        <time>2014-10-21T10:05:09Z</time>
      </trkpt>
      <trkpt lat="40.129281000" lon="-5.845563000">
        <ele>950.300000</ele>
        <time>2014-10-21T10:05:13Z</time>
      </trkpt>
      <trkpt lat="40.128790000" lon="-5.847705000">
        <ele>974.000000</ele>
        <time>2014-10-21T10:05:27Z</time>
      </trkpt>
      <trkpt lat="40.128493000" lon="-5.849969000">
        <ele>997.800000</ele>
        <time>2014-10-21T10:05:36Z</time>
      </trkpt>
      <trkpt lat="40.128234000" lon="-5.850601000">
        <ele>1003.700000</ele>
        <time>2014-10-21T10:05:40Z</time>
      </trkpt>
      <trkpt lat="40.127707000" lon="-5.851174000">
        <ele>1015.500000</ele>
        <time>2014-10-21T10:05:46Z</time>
      </trkpt>
      <trkpt lat="40.127811000" lon="-5.850120000">
        <ele>1024.500000</ele>
        <time>2014-10-21T10:05:51Z</time>
      </trkpt>
      <trkpt lat="40.127678000" lon="-5.849410000">
        <ele>1031.200000</ele>
        <time>2014-10-21T10:05:54Z</time>
      </trkpt>
      <trkpt lat="40.127322000" lon="-5.850255000">
        <ele>1041.600000</ele>
        <time>2014-10-21T10:05:59Z</time>
      </trkpt>
      <trkpt lat="40.126674000" lon="-5.851143000">
        <ele>1054.800000</ele>
        <time>2014-10-21T10:06:03Z</time>
      </trkpt>
      <trkpt lat="40.126868000" lon="-5.850095000">
        <ele>1059.200000</ele>
        <time>2014-10-21T10:06:09Z</time>
      </trkpt>
      <trkpt lat="40.125635000" lon="-5.851079000">
        <ele>1082.500000</ele>
        <time>2014-10-21T10:06:18Z</time>
      </trkpt>
      <trkpt lat="40.125198000" lon="-5.850879000">
        <ele>1092.300000</ele>
        <time>2014-10-21T10:06:22Z</time>
      </trkpt>
      <trkpt lat="40.124960000" lon="-5.850399000">
        <ele>1099.800000</ele>
        <time>2014-10-21T10:06:26Z</time>
      </trkpt>
      <trkpt lat="40.124413000" lon="-5.851409000">
        <ele>1108.300000</ele>
        <time>2014-10-21T10:06:30Z</time>
      </trkpt>
      <trkpt lat="40.123599000" lon="-5.852475000">
        <ele>1126.000000</ele>
        <time>2014-10-21T10:06:36Z</time>
      </trkpt>
      <trkpt lat="40.123123000" lon="-5.852397000">
        <ele>1134.400000</ele>
        <time>2014-10-21T10:06:44Z</time>
      </trkpt>
      <trkpt lat="40.121579000" lon="-5.852822000">
        <ele>1144.700000</ele>
        <time>2014-10-21T10:06:50Z</time>
      </trkpt>
      <trkpt lat="40.120600000" lon="-5.852608000">
        <ele>1155.600000</ele>
        <time>2014-10-21T10:06:54Z</time>
      </trkpt>
      <trkpt lat="40.120055000" lon="-5.852802000">
        <ele>1155.400000</ele>
        <time>2014-10-21T10:06:57Z</time>
      </trkpt>
      <trkpt lat="40.119174000" lon="-5.852803000">
        <ele>1158.100000</ele>
        <time>2014-10-21T10:07:03Z</time>
      </trkpt>
      <trkpt lat="40.118918000" lon="-5.852702000">
        <ele>1158.700000</ele>
        <time>2014-10-21T10:07:04Z</time>
      </trkpt>
      <trkpt lat="40.118142000" lon="-5.851484000">
        <ele>1167.900000</ele>
        <time>2014-10-21T10:07:12Z</time>
      </trkpt>
      <trkpt lat="40.117556000" lon="-5.849392000">
        <ele>1176.700000</ele>
        <time>2014-10-21T10:07:23Z</time>
      </trkpt>
      <trkpt lat="40.117715000" lon="-5.848519000">
        <ele>1179.100000</ele>
        <time>2014-10-21T10:07:28Z</time>
      </trkpt>
      <trkpt lat="40.117718000" lon="-5.848662000">
        <ele>1178.900000</ele>
        <time>2014-10-21T10:07:28Z</time>
      </trkpt>
    </trkseg>
  </trk>
</gpx>
